sensor_id;sensor_type;location;lat;lon;timestamp;P1;durP1;ratioP1;P2;durP2;ratioP2
7525;SDS011;3804;50.860;6.208;2023-03-23T00:00:14;3.67;;;2.60;;
7525;SDS011;3804;50.860;6.208;2023-03-23T00:02:41;3.10;;;2.10;;
7525;SDS011;3804;50.860;6.208;2023-03-23T00:05:10;3.20;;;2.63;;
7525;SDS011;3804;50.860;6.208;2023-03-23T00:07:36;4.53;;;2.47;;
7525;SDS011;3804;50.860;6.208;2023-03-23T00:10:03;4.07;;;2.30;;
7525;SDS011;3804;50.860;6.208;2023-03-23T00:12:31;3.70;;;2.17;;
7525;SDS011;3804;50.860;6.208;2023-03-23T00:15:04;3.77;;;2.50;;
7525;SDS011;3804;50.860;6.208;2023-03-23T00:17:31;2.90;;;2.03;;
7525;SDS011;3804;50.860;6.208;2023-03-23T00:19:59;3.20;;;2.40;;
7525;SDS011;3804;50.860;6.208;2023-03-23T00:22:28;3.17;;;2.30;;
7525;SDS011;3804;50.860;6.208;2023-03-23T00:24:54;4.53;;;2.80;;
7525;SDS011;3804;50.860;6.208;2023-03-23T00:27:22;2.50;;;1.90;;
7525;SDS011;3804;50.860;6.208;2023-03-23T00:29:49;3.97;;;2.17;;
7525;SDS011;3804;50.860;6.208;2023-03-23T00:32:19;3.07;;;2.43;;
7525;SDS011;3804;50.860;6.208;2023-03-23T00:34:47;5.10;;;2.50;;
7525;SDS011;3804;50.860;6.208;2023-03-23T00:37:15;3.97;;;2.70;;
7525;SDS011;3804;50.860;6.208;2023-03-23T00:39:43;3.63;;;2.40;;
7525;SDS011;3804;50.860;6.208;2023-03-23T00:42:13;4.07;;;2.70;;
7525;SDS011;3804;50.860;6.208;2023-03-23T00:44:42;3.40;;;2.63;;
7525;SDS011;3804;50.860;6.208;2023-03-23T00:47:10;2.77;;;2.00;;
7525;SDS011;3804;50.860;6.208;2023-03-23T00:49:38;2.37;;;2.10;;
7525;SDS011;3804;50.860;6.208;2023-03-23T00:52:05;3.50;;;2.47;;
7525;SDS011;3804;50.860;6.208;2023-03-23T00:54:32;4.47;;;2.30;;
7525;SDS011;3804;50.860;6.208;2023-03-23T00:57:01;3.03;;;2.30;;
7525;SDS011;3804;50.860;6.208;2023-03-23T00:59:28;5.17;;;2.13;;
7525;SDS011;3804;50.860;6.208;2023-03-23T01:01:56;6.57;;;2.73;;
7525;SDS011;3804;50.860;6.208;2023-03-23T01:04:22;3.50;;;2.77;;
7525;SDS011;3804;50.860;6.208;2023-03-23T01:06:49;4.33;;;2.50;;
7525;SDS011;3804;50.860;6.208;2023-03-23T01:09:19;6.23;;;3.03;;
7525;SDS011;3804;50.860;6.208;2023-03-23T01:11:48;3.20;;;2.73;;
7525;SDS011;3804;50.860;6.208;2023-03-23T01:14:15;2.70;;;2.50;;
7525;SDS011;3804;50.860;6.208;2023-03-23T01:16:42;4.20;;;2.90;;
7525;SDS011;3804;50.860;6.208;2023-03-23T01:19:09;4.70;;;2.80;;
7525;SDS011;3804;50.860;6.208;2023-03-23T01:21:36;3.47;;;3.00;;
7525;SDS011;3804;50.860;6.208;2023-03-23T01:24:03;5.17;;;2.93;;
7525;SDS011;3804;50.860;6.208;2023-03-23T01:26:30;5.50;;;2.87;;
7525;SDS011;3804;50.860;6.208;2023-03-23T01:28:57;4.97;;;2.70;;
7525;SDS011;3804;50.860;6.208;2023-03-23T01:31:26;4.53;;;3.50;;
7525;SDS011;3804;50.860;6.208;2023-03-23T01:33:52;4.00;;;2.90;;
7525;SDS011;3804;50.860;6.208;2023-03-23T01:36:23;3.77;;;3.10;;
7525;SDS011;3804;50.860;6.208;2023-03-23T01:38:50;7.30;;;3.00;;
7525;SDS011;3804;50.860;6.208;2023-03-23T01:41:17;4.63;;;2.90;;
7525;SDS011;3804;50.860;6.208;2023-03-23T01:43:58;3.67;;;2.80;;
7525;SDS011;3804;50.860;6.208;2023-03-23T01:46:27;3.87;;;2.80;;
7525;SDS011;3804;50.860;6.208;2023-03-23T01:48:55;3.20;;;2.47;;
7525;SDS011;3804;50.860;6.208;2023-03-23T01:51:24;4.07;;;2.70;;
7525;SDS011;3804;50.860;6.208;2023-03-23T01:54:07;2.70;;;2.50;;
7525;SDS011;3804;50.860;6.208;2023-03-23T01:56:36;2.23;;;2.03;;
7525;SDS011;3804;50.860;6.208;2023-03-23T01:59:08;3.20;;;2.37;;
7525;SDS011;3804;50.860;6.208;2023-03-23T02:01:35;3.80;;;2.60;;
7525;SDS011;3804;50.860;6.208;2023-03-23T02:04:06;2.80;;;2.50;;
7525;SDS011;3804;50.860;6.208;2023-03-23T02:06:35;2.90;;;2.40;;
7525;SDS011;3804;50.860;6.208;2023-03-23T02:09:12;4.17;;;2.40;;
7525;SDS011;3804;50.860;6.208;2023-03-23T02:11:40;2.73;;;2.00;;
7525;SDS011;3804;50.860;6.208;2023-03-23T02:14:07;3.07;;;2.00;;
7525;SDS011;3804;50.860;6.208;2023-03-23T02:17:20;2.67;;;2.10;;
7525;SDS011;3804;50.860;6.208;2023-03-23T02:24:36;3.33;;;2.27;;
7525;SDS011;3804;50.860;6.208;2023-03-23T02:35:17;2.43;;;2.23;;
7525;SDS011;3804;50.860;6.208;2023-03-23T02:37:46;2.30;;;2.10;;
7525;SDS011;3804;50.860;6.208;2023-03-23T02:40:17;2.13;;;1.80;;
7525;SDS011;3804;50.860;6.208;2023-03-23T02:42:45;2.73;;;2.20;;
7525;SDS011;3804;50.860;6.208;2023-03-23T02:45:14;2.30;;;2.10;;
7525;SDS011;3804;50.860;6.208;2023-03-23T02:47:45;1.77;;;1.63;;
7525;SDS011;3804;50.860;6.208;2023-03-23T02:50:14;2.30;;;2.10;;
7525;SDS011;3804;50.860;6.208;2023-03-23T02:52:43;3.33;;;1.90;;
7525;SDS011;3804;50.860;6.208;2023-03-23T02:55:11;2.47;;;2.07;;
7525;SDS011;3804;50.860;6.208;2023-03-23T02:57:38;3.10;;;2.10;;
7525;SDS011;3804;50.860;6.208;2023-03-23T03:00:11;2.47;;;2.00;;
7525;SDS011;3804;50.860;6.208;2023-03-23T03:02:41;2.10;;;1.93;;
7525;SDS011;3804;50.860;6.208;2023-03-23T03:07:58;2.67;;;1.60;;
7525;SDS011;3804;50.860;6.208;2023-03-23T03:10:52;2.83;;;1.90;;
7525;SDS011;3804;50.860;6.208;2023-03-23T03:15:58;1.73;;;1.60;;
7525;SDS011;3804;50.860;6.208;2023-03-23T03:18:33;2.17;;;1.80;;
7525;SDS011;3804;50.860;6.208;2023-03-23T03:21:07;2.63;;;1.87;;
7525;SDS011;3804;50.860;6.208;2023-03-23T03:23:40;2.17;;;1.97;;
7525;SDS011;3804;50.860;6.208;2023-03-23T03:26:13;2.33;;;1.83;;
7525;SDS011;3804;50.860;6.208;2023-03-23T03:28:48;2.23;;;1.80;;
7525;SDS011;3804;50.860;6.208;2023-03-23T03:31:20;3.03;;;1.97;;
7525;SDS011;3804;50.860;6.208;2023-03-23T03:33:48;2.20;;;1.80;;
7525;SDS011;3804;50.860;6.208;2023-03-23T03:36:19;2.50;;;1.80;;
7525;SDS011;3804;50.860;6.208;2023-03-23T03:38:47;2.57;;;1.93;;
7525;SDS011;3804;50.860;6.208;2023-03-23T03:41:16;3.83;;;1.90;;
7525;SDS011;3804;50.860;6.208;2023-03-23T03:43:45;2.43;;;2.23;;
7525;SDS011;3804;50.860;6.208;2023-03-23T03:46:12;4.27;;;2.20;;
7525;SDS011;3804;50.860;6.208;2023-03-23T03:48:39;2.30;;;2.10;;
7525;SDS011;3804;50.860;6.208;2023-03-23T03:51:06;3.03;;;2.60;;
7525;SDS011;3804;50.860;6.208;2023-03-23T03:53:36;3.20;;;2.83;;
7525;SDS011;3804;50.860;6.208;2023-03-23T03:56:03;4.03;;;2.20;;
7525;SDS011;3804;50.860;6.208;2023-03-23T03:58:37;2.37;;;2.17;;
7525;SDS011;3804;50.860;6.208;2023-03-23T04:01:11;3.20;;;2.50;;
7525;SDS011;3804;50.860;6.208;2023-03-23T04:03:39;2.33;;;2.00;;
7525;SDS011;3804;50.860;6.208;2023-03-23T04:06:18;3.17;;;2.30;;
7525;SDS011;3804;50.860;6.208;2023-03-23T04:08:45;2.40;;;2.20;;
7525;SDS011;3804;50.860;6.208;2023-03-23T04:11:34;2.70;;;1.93;;
7525;SDS011;3804;50.860;6.208;2023-03-23T04:14:19;2.53;;;2.33;;
7525;SDS011;3804;50.860;6.208;2023-03-23T04:16:46;2.57;;;2.13;;
7525;SDS011;3804;50.860;6.208;2023-03-23T04:19:20;2.47;;;2.17;;
7525;SDS011;3804;50.860;6.208;2023-03-23T04:21:47;2.10;;;1.90;;
7525;SDS011;3804;50.860;6.208;2023-03-23T04:24:16;2.60;;;1.90;;
7525;SDS011;3804;50.860;6.208;2023-03-23T04:27:11;3.83;;;2.40;;
7525;SDS011;3804;50.860;6.208;2023-03-23T04:29:39;3.57;;;2.40;;
7525;SDS011;3804;50.860;6.208;2023-03-23T04:32:31;4.67;;;2.40;;
7525;SDS011;3804;50.860;6.208;2023-03-23T04:34:59;2.93;;;2.13;;
7525;SDS011;3804;50.860;6.208;2023-03-23T04:38:04;2.53;;;2.33;;
7525;SDS011;3804;50.860;6.208;2023-03-23T04:40:31;2.40;;;2.20;;
7525;SDS011;3804;50.860;6.208;2023-03-23T04:43:09;3.33;;;2.00;;
7525;SDS011;3804;50.860;6.208;2023-03-23T04:46:03;3.03;;;2.30;;
7525;SDS011;3804;50.860;6.208;2023-03-23T04:48:35;3.67;;;2.13;;
7525;SDS011;3804;50.860;6.208;2023-03-23T04:51:12;2.97;;;2.30;;
7525;SDS011;3804;50.860;6.208;2023-03-23T04:53:41;3.90;;;2.10;;
7525;SDS011;3804;50.860;6.208;2023-03-23T04:56:08;4.17;;;2.10;;
7525;SDS011;3804;50.860;6.208;2023-03-23T04:58:41;3.67;;;2.63;;
7525;SDS011;3804;50.860;6.208;2023-03-23T05:01:26;3.13;;;2.20;;
7525;SDS011;3804;50.860;6.208;2023-03-23T05:04:14;3.93;;;2.17;;
7525;SDS011;3804;50.860;6.208;2023-03-23T05:06:57;4.30;;;2.43;;
7525;SDS011;3804;50.860;6.208;2023-03-23T05:09:28;2.77;;;1.87;;
7525;SDS011;3804;50.860;6.208;2023-03-23T05:11:55;3.13;;;1.80;;
7525;SDS011;3804;50.860;6.208;2023-03-23T05:14:22;3.53;;;2.47;;
7525;SDS011;3804;50.860;6.208;2023-03-23T05:17:00;3.57;;;2.80;;
7525;SDS011;3804;50.860;6.208;2023-03-23T05:19:27;4.17;;;2.50;;
7525;SDS011;3804;50.860;6.208;2023-03-23T05:21:57;2.93;;;2.23;;
7525;SDS011;3804;50.860;6.208;2023-03-23T05:24:40;3.87;;;2.20;;
7525;SDS011;3804;50.860;6.208;2023-03-23T05:27:09;3.57;;;2.60;;
7525;SDS011;3804;50.860;6.208;2023-03-23T05:29:42;4.13;;;2.10;;
7525;SDS011;3804;50.860;6.208;2023-03-23T05:32:09;4.13;;;2.47;;
7525;SDS011;3804;50.860;6.208;2023-03-23T05:34:38;3.37;;;2.20;;
7525;SDS011;3804;50.860;6.208;2023-03-23T05:37:04;2.80;;;2.00;;
7525;SDS011;3804;50.860;6.208;2023-03-23T05:39:48;2.03;;;1.83;;
7525;SDS011;3804;50.860;6.208;2023-03-23T05:42:36;3.23;;;2.00;;
7525;SDS011;3804;50.860;6.208;2023-03-23T05:45:12;4.57;;;1.97;;
7525;SDS011;3804;50.860;6.208;2023-03-23T05:47:40;3.40;;;2.10;;
7525;SDS011;3804;50.860;6.208;2023-03-23T05:50:13;5.07;;;2.30;;
7525;SDS011;3804;50.860;6.208;2023-03-23T05:52:40;7.87;;;2.13;;
7525;SDS011;3804;50.860;6.208;2023-03-23T05:55:10;3.27;;;1.80;;
7525;SDS011;3804;50.860;6.208;2023-03-23T05:57:39;4.23;;;2.17;;
7525;SDS011;3804;50.860;6.208;2023-03-23T06:00:27;2.17;;;1.80;;
7525;SDS011;3804;50.860;6.208;2023-03-23T06:03:09;3.20;;;2.20;;
7525;SDS011;3804;50.860;6.208;2023-03-23T06:05:45;2.77;;;1.83;;
7525;SDS011;3804;50.860;6.208;2023-03-23T06:08:16;2.60;;;1.70;;
7525;SDS011;3804;50.860;6.208;2023-03-23T06:10:44;4.60;;;2.07;;
7525;SDS011;3804;50.860;6.208;2023-03-23T06:13:13;2.10;;;1.50;;
7525;SDS011;3804;50.860;6.208;2023-03-23T06:15:44;4.40;;;1.90;;
7525;SDS011;3804;50.860;6.208;2023-03-23T06:18:38;3.53;;;2.00;;
7525;SDS011;3804;50.860;6.208;2023-03-23T06:21:18;4.57;;;1.97;;
7525;SDS011;3804;50.860;6.208;2023-03-23T06:23:58;3.53;;;2.00;;
7525;SDS011;3804;50.860;6.208;2023-03-23T06:26:33;4.37;;;2.10;;
7525;SDS011;3804;50.860;6.208;2023-03-23T06:29:03;3.60;;;2.03;;
7525;SDS011;3804;50.860;6.208;2023-03-23T06:31:46;3.20;;;1.50;;
7525;SDS011;3804;50.860;6.208;2023-03-23T06:34:14;3.67;;;1.90;;
7525;SDS011;3804;50.860;6.208;2023-03-23T06:37:04;3.37;;;1.87;;
7525;SDS011;3804;50.860;6.208;2023-03-23T06:39:36;4.50;;;2.27;;
7525;SDS011;3804;50.860;6.208;2023-03-23T06:42:17;2.40;;;1.60;;
7525;SDS011;3804;50.860;6.208;2023-03-23T06:44:51;5.17;;;1.80;;
7525;SDS011;3804;50.860;6.208;2023-03-23T06:47:19;2.40;;;1.60;;
7525;SDS011;3804;50.860;6.208;2023-03-23T06:49:47;4.03;;;2.07;;
7525;SDS011;3804;50.860;6.208;2023-03-23T06:52:25;4.43;;;1.43;;
7525;SDS011;3804;50.860;6.208;2023-03-23T06:54:53;1.93;;;1.40;;
7525;SDS011;3804;50.860;6.208;2023-03-23T06:57:20;3.33;;;1.60;;
7525;SDS011;3804;50.860;6.208;2023-03-23T06:59:50;2.77;;;1.40;;
7525;SDS011;3804;50.860;6.208;2023-03-23T07:02:17;4.97;;;1.73;;
7525;SDS011;3804;50.860;6.208;2023-03-23T07:04:48;4.37;;;1.60;;
7525;SDS011;3804;50.860;6.208;2023-03-23T07:07:19;2.70;;;1.33;;
7525;SDS011;3804;50.860;6.208;2023-03-23T07:10:21;1.80;;;1.20;;
7525;SDS011;3804;50.860;6.208;2023-03-23T07:12:48;2.63;;;1.30;;
7525;SDS011;3804;50.860;6.208;2023-03-23T07:15:16;2.67;;;1.40;;
7525;SDS011;3804;50.860;6.208;2023-03-23T07:17:48;2.20;;;1.23;;
7525;SDS011;3804;50.860;6.208;2023-03-23T07:20:30;2.33;;;1.50;;
7525;SDS011;3804;50.860;6.208;2023-03-23T07:22:58;5.87;;;1.50;;
7525;SDS011;3804;50.860;6.208;2023-03-23T07:25:54;4.53;;;1.60;;
7525;SDS011;3804;50.860;6.208;2023-03-23T07:28:28;4.43;;;1.67;;
7525;SDS011;3804;50.860;6.208;2023-03-23T07:31:02;3.03;;;1.30;;
7525;SDS011;3804;50.860;6.208;2023-03-23T07:33:30;3.27;;;1.60;;
7525;SDS011;3804;50.860;6.208;2023-03-23T07:35:58;2.17;;;1.40;;
7525;SDS011;3804;50.860;6.208;2023-03-23T07:38:28;4.53;;;1.30;;
7525;SDS011;3804;50.860;6.208;2023-03-23T07:40:57;3.40;;;1.50;;
7525;SDS011;3804;50.860;6.208;2023-03-23T07:43:25;3.17;;;1.33;;
7525;SDS011;3804;50.860;6.208;2023-03-23T07:46:10;4.77;;;1.40;;
7525;SDS011;3804;50.860;6.208;2023-03-23T07:48:51;1.97;;;1.20;;
7525;SDS011;3804;50.860;6.208;2023-03-23T07:51:22;4.23;;;1.40;;
7525;SDS011;3804;50.860;6.208;2023-03-23T07:53:50;2.83;;;1.33;;
7525;SDS011;3804;50.860;6.208;2023-03-23T07:56:37;2.87;;;1.70;;
7525;SDS011;3804;50.860;6.208;2023-03-23T07:59:11;2.70;;;1.60;;
7525;SDS011;3804;50.860;6.208;2023-03-23T08:01:40;3.00;;;1.43;;
7525;SDS011;3804;50.860;6.208;2023-03-23T08:04:40;2.90;;;1.50;;
7525;SDS011;3804;50.860;6.208;2023-03-23T08:07:19;2.50;;;1.33;;
7525;SDS011;3804;50.860;6.208;2023-03-23T08:10:01;3.43;;;1.60;;
7525;SDS011;3804;50.860;6.208;2023-03-23T08:13:01;3.13;;;1.20;;
7525;SDS011;3804;50.860;6.208;2023-03-23T08:15:46;2.10;;;1.40;;
7525;SDS011;3804;50.860;6.208;2023-03-23T08:18:39;2.77;;;1.10;;
7525;SDS011;3804;50.860;6.208;2023-03-23T08:21:25;3.13;;;1.40;;
7525;SDS011;3804;50.860;6.208;2023-03-23T08:24:11;3.80;;;1.40;;
7525;SDS011;3804;50.860;6.208;2023-03-23T08:26:49;10.30;;;1.77;;
7525;SDS011;3804;50.860;6.208;2023-03-23T08:29:45;4.63;;;1.50;;
7525;SDS011;3804;50.860;6.208;2023-03-23T08:32:47;4.57;;;1.73;;
7525;SDS011;3804;50.860;6.208;2023-03-23T08:35:28;1.83;;;1.27;;
7525;SDS011;3804;50.860;6.208;2023-03-23T08:38:14;7.40;;;1.93;;
7525;SDS011;3804;50.860;6.208;2023-03-23T08:41:13;4.23;;;1.23;;
7525;SDS011;3804;50.860;6.208;2023-03-23T08:43:53;4.47;;;2.17;;
7525;SDS011;3804;50.860;6.208;2023-03-23T08:46:39;2.03;;;1.47;;
7525;SDS011;3804;50.860;6.208;2023-03-23T08:49:16;4.40;;;1.77;;
7525;SDS011;3804;50.860;6.208;2023-03-23T08:52:13;2.53;;;1.40;;
7525;SDS011;3804;50.860;6.208;2023-03-23T08:54:54;3.77;;;1.73;;
7525;SDS011;3804;50.860;6.208;2023-03-23T08:57:31;4.27;;;1.50;;
7525;SDS011;3804;50.860;6.208;2023-03-23T09:00:10;3.90;;;1.90;;
7525;SDS011;3804;50.860;6.208;2023-03-23T09:03:08;2.40;;;1.40;;
7525;SDS011;3804;50.860;6.208;2023-03-23T09:05:46;3.60;;;1.40;;
7525;SDS011;3804;50.860;6.208;2023-03-23T09:08:17;4.73;;;1.30;;
7525;SDS011;3804;50.860;6.208;2023-03-23T09:10:44;3.60;;;1.00;;
7525;SDS011;3804;50.860;6.208;2023-03-23T09:13:11;5.30;;;1.70;;
7525;SDS011;3804;50.860;6.208;2023-03-23T09:15:37;3.27;;;1.60;;
7525;SDS011;3804;50.860;6.208;2023-03-23T09:18:06;2.83;;;1.30;;
7525;SDS011;3804;50.860;6.208;2023-03-23T09:20:33;1.47;;;1.10;;
7525;SDS011;3804;50.860;6.208;2023-03-23T09:23:00;3.17;;;1.27;;
7525;SDS011;3804;50.860;6.208;2023-03-23T09:25:27;2.20;;;1.30;;
7525;SDS011;3804;50.860;6.208;2023-03-23T09:27:55;2.77;;;1.10;;
7525;SDS011;3804;50.860;6.208;2023-03-23T09:30:23;2.73;;;1.47;;
7525;SDS011;3804;50.860;6.208;2023-03-23T09:32:52;3.50;;;1.30;;
7525;SDS011;3804;50.860;6.208;2023-03-23T09:35:19;3.03;;;1.53;;
7525;SDS011;3804;50.860;6.208;2023-03-23T09:37:50;3.47;;;1.13;;
7525;SDS011;3804;50.860;6.208;2023-03-23T09:40:28;2.63;;;1.10;;
7525;SDS011;3804;50.860;6.208;2023-03-23T09:50:24;3.43;;;1.17;;
7525;SDS011;3804;50.860;6.208;2023-03-23T09:52:57;1.73;;;1.10;;
7525;SDS011;3804;50.860;6.208;2023-03-23T09:55:25;1.70;;;1.10;;
7525;SDS011;3804;50.860;6.208;2023-03-23T09:57:57;1.47;;;0.90;;
7525;SDS011;3804;50.860;6.208;2023-03-23T10:00:33;2.53;;;1.27;;
7525;SDS011;3804;50.860;6.208;2023-03-23T10:03:05;1.93;;;1.10;;
7525;SDS011;3804;50.860;6.208;2023-03-23T10:05:34;2.00;;;1.00;;
7525;SDS011;3804;50.860;6.208;2023-03-23T10:08:02;1.40;;;1.27;;
7525;SDS011;3804;50.860;6.208;2023-03-23T10:10:37;1.07;;;0.77;;
7525;SDS011;3804;50.860;6.208;2023-03-23T10:15:51;1.83;;;0.90;;
7525;SDS011;3804;50.860;6.208;2023-03-23T10:18:24;1.00;;;1.00;;
7525;SDS011;3804;50.860;6.208;2023-03-23T10:20:55;1.00;;;0.80;;
7525;SDS011;3804;50.860;6.208;2023-03-23T10:23:40;1.27;;;1.10;;
7525;SDS011;3804;50.860;6.208;2023-03-23T10:26:29;1.70;;;0.97;;
7525;SDS011;3804;50.860;6.208;2023-03-23T10:31:38;1.70;;;0.90;;
7525;SDS011;3804;50.860;6.208;2023-03-23T10:34:09;2.67;;;0.90;;
7525;SDS011;3804;50.860;6.208;2023-03-23T10:36:38;0.93;;;0.83;;
7525;SDS011;3804;50.860;6.208;2023-03-23T10:41:36;2.93;;;1.00;;
7525;SDS011;3804;50.860;6.208;2023-03-23T10:46:46;3.00;;;1.40;;
7525;SDS011;3804;50.860;6.208;2023-03-23T10:49:18;1.97;;;1.10;;
7525;SDS011;3804;50.860;6.208;2023-03-23T10:51:56;1.47;;;1.10;;
7525;SDS011;3804;50.860;6.208;2023-03-23T10:54:31;2.57;;;1.40;;
7525;SDS011;3804;50.860;6.208;2023-03-23T10:56:58;1.60;;;0.93;;
7525;SDS011;3804;50.860;6.208;2023-03-23T10:59:30;6.43;;;1.30;;
7525;SDS011;3804;50.860;6.208;2023-03-23T11:02:00;2.60;;;1.00;;
7525;SDS011;3804;50.860;6.208;2023-03-23T11:04:30;0.70;;;0.70;;
7525;SDS011;3804;50.860;6.208;2023-03-23T11:06:59;1.70;;;0.80;;
7525;SDS011;3804;50.860;6.208;2023-03-23T11:09:34;3.00;;;1.00;;
7525;SDS011;3804;50.860;6.208;2023-03-23T11:12:02;0.70;;;0.70;;
7525;SDS011;3804;50.860;6.208;2023-03-23T11:14:33;1.17;;;0.77;;
7525;SDS011;3804;50.860;6.208;2023-03-23T11:17:02;2.67;;;1.00;;
7525;SDS011;3804;50.860;6.208;2023-03-23T11:19:41;2.20;;;0.97;;
7525;SDS011;3804;50.860;6.208;2023-03-23T11:22:09;1.57;;;1.10;;
7525;SDS011;3804;50.860;6.208;2023-03-23T11:24:43;1.70;;;1.07;;
7525;SDS011;3804;50.860;6.208;2023-03-23T11:27:11;1.43;;;1.10;;
7525;SDS011;3804;50.860;6.208;2023-03-23T11:32:28;2.80;;;1.50;;
7525;SDS011;3804;50.860;6.208;2023-03-23T11:34:59;3.43;;;2.00;;
7525;SDS011;3804;50.860;6.208;2023-03-23T11:37:42;1.83;;;1.50;;
7525;SDS011;3804;50.860;6.208;2023-03-23T11:42:38;1.97;;;1.13;;
7525;SDS011;3804;50.860;6.208;2023-03-23T11:45:16;2.00;;;1.77;;
7525;SDS011;3804;50.860;6.208;2023-03-23T11:47:54;2.30;;;1.23;;
7525;SDS011;3804;50.860;6.208;2023-03-23T11:50:28;1.40;;;1.00;;
7525;SDS011;3804;50.860;6.208;2023-03-23T11:55:33;3.97;;;1.00;;
7525;SDS011;3804;50.860;6.208;2023-03-23T11:58:02;2.50;;;1.37;;
7525;SDS011;3804;50.860;6.208;2023-03-23T12:00:31;1.53;;;1.07;;
7525;SDS011;3804;50.860;6.208;2023-03-23T12:05:49;5.60;;;1.60;;
7525;SDS011;3804;50.860;6.208;2023-03-23T12:08:27;3.73;;;1.37;;
7525;SDS011;3804;50.860;6.208;2023-03-23T12:11:20;3.30;;;1.30;;
7525;SDS011;3804;50.860;6.208;2023-03-23T12:16:29;2.43;;;1.37;;
7525;SDS011;3804;50.860;6.208;2023-03-23T12:26:57;4.37;;;1.23;;
7525;SDS011;3804;50.860;6.208;2023-03-23T12:29:33;1.20;;;1.00;;
7525;SDS011;3804;50.860;6.208;2023-03-23T12:34:43;3.87;;;1.20;;
7525;SDS011;3804;50.860;6.208;2023-03-23T12:42:26;1.83;;;1.17;;
7525;SDS011;3804;50.860;6.208;2023-03-23T12:45:00;4.00;;;1.20;;
7525;SDS011;3804;50.860;6.208;2023-03-23T12:50:05;3.17;;;1.30;;
7525;SDS011;3804;50.860;6.208;2023-03-23T12:52:55;2.43;;;1.30;;
7525;SDS011;3804;50.860;6.208;2023-03-23T12:55:30;2.73;;;1.40;;
7525;SDS011;3804;50.860;6.208;2023-03-23T12:58:01;1.70;;;1.30;;
7525;SDS011;3804;50.860;6.208;2023-03-23T13:00:31;1.83;;;1.33;;
7525;SDS011;3804;50.860;6.208;2023-03-23T13:05:35;1.60;;;1.30;;
7525;SDS011;3804;50.860;6.208;2023-03-23T13:08:09;1.53;;;1.23;;
7525;SDS011;3804;50.860;6.208;2023-03-23T13:10:45;2.23;;;1.10;;
7525;SDS011;3804;50.860;6.208;2023-03-23T13:13:23;1.87;;;1.17;;
7525;SDS011;3804;50.860;6.208;2023-03-23T13:18:37;2.47;;;1.40;;
7525;SDS011;3804;50.860;6.208;2023-03-23T13:23:41;3.10;;;1.70;;
7525;SDS011;3804;50.860;6.208;2023-03-23T13:26:13;2.50;;;1.70;;
7525;SDS011;3804;50.860;6.208;2023-03-23T13:31:38;3.70;;;1.90;;
7525;SDS011;3804;50.860;6.208;2023-03-23T13:39:20;3.93;;;1.80;;
7525;SDS011;3804;50.860;6.208;2023-03-23T13:49:50;2.33;;;1.70;;
7525;SDS011;3804;50.860;6.208;2023-03-23T13:52:25;5.13;;;2.10;;
7525;SDS011;3804;50.860;6.208;2023-03-23T14:05:38;3.47;;;1.90;;
7525;SDS011;3804;50.860;6.208;2023-03-23T14:10:40;5.10;;;1.97;;
7525;SDS011;3804;50.860;6.208;2023-03-23T14:14:01;4.40;;;1.50;;
7525;SDS011;3804;50.860;6.208;2023-03-23T14:18:27;3.33;;;1.90;;
7525;SDS011;3804;50.860;6.208;2023-03-23T14:20:54;4.30;;;2.00;;
7525;SDS011;3804;50.860;6.208;2023-03-23T14:23:22;3.53;;;1.70;;
7525;SDS011;3804;50.860;6.208;2023-03-23T14:25:56;4.07;;;1.63;;
7525;SDS011;3804;50.860;6.208;2023-03-23T14:28:26;5.13;;;1.77;;
7525;SDS011;3804;50.860;6.208;2023-03-23T14:30:53;2.20;;;1.70;;
7525;SDS011;3804;50.860;6.208;2023-03-23T14:33:20;3.30;;;1.70;;
7525;SDS011;3804;50.860;6.208;2023-03-23T14:35:47;2.90;;;1.60;;
7525;SDS011;3804;50.860;6.208;2023-03-23T14:38:16;4.50;;;2.00;;
7525;SDS011;3804;50.860;6.208;2023-03-23T14:40:45;4.30;;;2.07;;
7525;SDS011;3804;50.860;6.208;2023-03-23T14:43:14;3.27;;;1.77;;
7525;SDS011;3804;50.860;6.208;2023-03-23T14:45:42;3.17;;;1.73;;
7525;SDS011;3804;50.860;6.208;2023-03-23T14:48:10;4.03;;;1.90;;
7525;SDS011;3804;50.860;6.208;2023-03-23T14:50:40;3.13;;;1.93;;
7525;SDS011;3804;50.860;6.208;2023-03-23T14:53:16;5.00;;;2.23;;
7525;SDS011;3804;50.860;6.208;2023-03-23T14:55:43;5.53;;;2.10;;
7525;SDS011;3804;50.860;6.208;2023-03-23T14:58:13;3.17;;;1.50;;
7525;SDS011;3804;50.860;6.208;2023-03-23T15:00:45;3.57;;;1.70;;
7525;SDS011;3804;50.860;6.208;2023-03-23T15:03:14;3.57;;;2.00;;
7525;SDS011;3804;50.860;6.208;2023-03-23T15:05:46;2.47;;;1.83;;
7525;SDS011;3804;50.860;6.208;2023-03-23T15:08:17;3.17;;;1.70;;
7525;SDS011;3804;50.860;6.208;2023-03-23T15:10:55;2.20;;;1.40;;
7525;SDS011;3804;50.860;6.208;2023-03-23T15:13:22;3.00;;;1.70;;
7525;SDS011;3804;50.860;6.208;2023-03-23T15:15:49;3.87;;;1.40;;
7525;SDS011;3804;50.860;6.208;2023-03-23T15:18:22;3.43;;;1.70;;
7525;SDS011;3804;50.860;6.208;2023-03-23T15:20:52;4.17;;;1.90;;
7525;SDS011;3804;50.860;6.208;2023-03-23T15:23:27;4.13;;;1.83;;
7525;SDS011;3804;50.860;6.208;2023-03-23T15:25:55;3.43;;;1.57;;
7525;SDS011;3804;50.860;6.208;2023-03-23T15:28:27;2.90;;;1.70;;
7525;SDS011;3804;50.860;6.208;2023-03-23T15:30:55;1.90;;;1.30;;
7525;SDS011;3804;50.860;6.208;2023-03-23T15:33:38;4.27;;;1.93;;
7525;SDS011;3804;50.860;6.208;2023-03-23T15:36:13;4.60;;;2.20;;
7525;SDS011;3804;50.860;6.208;2023-03-23T15:38:44;4.13;;;1.70;;
7525;SDS011;3804;50.860;6.208;2023-03-23T15:41:25;2.80;;;1.60;;
7525;SDS011;3804;50.860;6.208;2023-03-23T15:43:56;2.73;;;1.50;;
7525;SDS011;3804;50.860;6.208;2023-03-23T15:46:26;3.53;;;1.80;;
7525;SDS011;3804;50.860;6.208;2023-03-23T15:51:27;4.00;;;1.67;;
7525;SDS011;3804;50.860;6.208;2023-03-23T15:53:55;3.53;;;1.80;;
7525;SDS011;3804;50.860;6.208;2023-03-23T15:56:25;5.60;;;1.50;;
7525;SDS011;3804;50.860;6.208;2023-03-23T15:58:52;4.33;;;1.93;;
7525;SDS011;3804;50.860;6.208;2023-03-23T16:01:20;5.30;;;1.70;;
7525;SDS011;3804;50.860;6.208;2023-03-23T16:03:52;2.53;;;1.67;;
7525;SDS011;3804;50.860;6.208;2023-03-23T16:06:20;4.50;;;1.77;;
7525;SDS011;3804;50.860;6.208;2023-03-23T16:08:54;3.77;;;1.70;;
7525;SDS011;3804;50.860;6.208;2023-03-23T16:11:23;6.07;;;1.80;;
7525;SDS011;3804;50.860;6.208;2023-03-23T16:13:50;3.73;;;2.00;;
7525;SDS011;3804;50.860;6.208;2023-03-23T16:16:18;3.90;;;1.73;;
7525;SDS011;3804;50.860;6.208;2023-03-23T16:18:46;4.97;;;1.80;;
7525;SDS011;3804;50.860;6.208;2023-03-23T16:21:13;7.90;;;2.00;;
7525;SDS011;3804;50.860;6.208;2023-03-23T16:23:40;3.73;;;1.80;;
7525;SDS011;3804;50.860;6.208;2023-03-23T16:26:09;4.20;;;1.60;;
7525;SDS011;3804;50.860;6.208;2023-03-23T16:28:37;4.93;;;1.90;;
7525;SDS011;3804;50.860;6.208;2023-03-23T16:31:04;4.93;;;1.63;;
7525;SDS011;3804;50.860;6.208;2023-03-23T16:33:31;7.00;;;1.90;;
7525;SDS011;3804;50.860;6.208;2023-03-23T16:35:58;5.03;;;1.77;;
7525;SDS011;3804;50.860;6.208;2023-03-23T16:38:25;2.50;;;1.80;;
7525;SDS011;3804;50.860;6.208;2023-03-23T16:40:52;4.40;;;1.50;;
7525;SDS011;3804;50.860;6.208;2023-03-23T16:43:19;7.23;;;1.70;;
7525;SDS011;3804;50.860;6.208;2023-03-23T16:45:46;4.20;;;1.77;;
7525;SDS011;3804;50.860;6.208;2023-03-23T16:48:14;2.97;;;1.60;;
7525;SDS011;3804;50.860;6.208;2023-03-23T16:50:43;5.77;;;2.03;;
7525;SDS011;3804;50.860;6.208;2023-03-23T16:53:10;5.07;;;2.30;;
7525;SDS011;3804;50.860;6.208;2023-03-23T16:55:37;5.23;;;2.00;;
7525;SDS011;3804;50.860;6.208;2023-03-23T16:58:05;3.57;;;1.80;;
7525;SDS011;3804;50.860;6.208;2023-03-23T17:00:44;3.97;;;1.63;;
7525;SDS011;3804;50.860;6.208;2023-03-23T17:03:11;3.43;;;1.70;;
7525;SDS011;3804;50.860;6.208;2023-03-23T17:05:39;3.40;;;1.77;;
7525;SDS011;3804;50.860;6.208;2023-03-23T17:08:07;3.70;;;1.70;;
7525;SDS011;3804;50.860;6.208;2023-03-23T17:10:36;4.97;;;1.80;;
7525;SDS011;3804;50.860;6.208;2023-03-23T17:13:03;3.53;;;1.70;;
7525;SDS011;3804;50.860;6.208;2023-03-23T17:15:30;5.07;;;1.93;;
7525;SDS011;3804;50.860;6.208;2023-03-23T17:17:57;4.43;;;2.27;;
7525;SDS011;3804;50.860;6.208;2023-03-23T17:20:24;7.17;;;2.20;;
7525;SDS011;3804;50.860;6.208;2023-03-23T17:22:51;2.57;;;1.83;;
7525;SDS011;3804;50.860;6.208;2023-03-23T17:25:18;3.27;;;1.60;;
7525;SDS011;3804;50.860;6.208;2023-03-23T17:27:45;3.33;;;1.70;;
7525;SDS011;3804;50.860;6.208;2023-03-23T17:30:12;4.43;;;1.80;;
7525;SDS011;3804;50.860;6.208;2023-03-23T17:32:39;4.33;;;1.67;;
7525;SDS011;3804;50.860;6.208;2023-03-23T17:35:06;3.53;;;2.30;;
7525;SDS011;3804;50.860;6.208;2023-03-23T17:37:33;4.23;;;1.87;;